Time;durP1;ratioP1;P1;durP2;ratioP2;P2;SDS_P1;SDS_P2;PMS_P1;PMS_P2;Temp;Humidity;BMP_temperature;BMP_pressure;BME280_temperature;BME280_humidity;BME280_pressure;Samples;Min_cycle;Max_cycle;Signal;HPM_P1;HPM_P2
2022/08/07 00:00:33;;;;;;;7.53;5.45;;;14.10;99.90;;;;;;5053712;28;20482;-67
2022/08/07 00:02:59;;;;;;;6.95;4.93;;;14.10;99.90;;;;;;5069513;28;20041;-67
2022/08/07 00:05:28;;;;;;;8.93;5.90;;;14.10;99.90;;;;;;5061549;28;20036;-68
2022/08/07 00:07:54;;;;;;;6.97;4.95;;;14.10;99.90;;;;;;5070885;28;20076;-68
2022/08/07 00:10:22;;;;;;;10.23;5.97;;;14.10;99.90;;;;;;5063094;28;20116;-68
2022/08/07 00:12:58;;;;;;;10.00;6.00;;;14.10;99.90;;;;;;5052429;28;20098;-68
2022/08/07 00:15:24;;;;;;;7.88;5.53;;;14.10;99.90;;;;;;5069244;28;20089;-68
2022/08/07 00:17:50;;;;;;;8.55;5.53;;;14.00;99.90;;;;;;5066260;28;20454;-68
2022/08/07 00:20:16;;;;;;;7.60;5.82;;;14.00;99.90;;;;;;5059371;28;20500;-67
2022/08/07 00:22:42;;;;;;;8.40;6.40;;;14.00;99.90;;;;;;5049689;28;20036;-67
2022/08/07 00:25:08;;;;;;;13.15;6.90;;;14.00;99.90;;;;;;5034166;28;20037;-69
2022/08/07 00:27:35;;;;;;;7.57;5.63;;;14.00;99.90;;;;;;5067770;28;20033;-67
2022/08/07 00:30:03;;;;;;;8.43;6.15;;;14.00;99.90;;;;;;5070073;28;20201;-67
2022/08/07 00:32:28;;;;;;;9.98;6.25;;;14.00;99.90;;;;;;5052205;28;20120;-67
2022/08/07 00:34:54;;;;;;;10.88;7.18;;;13.90;99.90;;;;;;5062324;28;20113;-67
2022/08/07 00:37:20;;;;;;;8.95;7.22;;;14.00;99.90;;;;;;5034903;28;20039;-68
2022/08/07 00:39:49;;;;;;;10.02;7.22;;;13.90;99.90;;;;;;5067145;28;20041;-67
2022/08/07 00:42:15;;;;;;;10.93;7.38;;;13.90;99.90;;;;;;5051463;28;20044;-68
2022/08/07 00:44:40;;;;;;;9.32;7.00;;;13.90;99.90;;;;;;5048583;28;20051;-68
2022/08/07 00:47:09;;;;;;;9.48;7.10;;;13.90;99.90;;;;;;5014880;28;20041;-67
2022/08/07 00:49:35;;;;;;;9.45;6.85;;;13.80;99.90;;;;;;5052243;28;20498;-66
2022/08/07 00:52:04;;;;;;;9.05;6.85;;;13.80;99.90;;;;;;5056719;28;20127;-68
2022/08/07 00:54:29;;;;;;;9.50;7.15;;;13.80;99.90;;;;;;5036861;28;20063;-67
2022/08/07 00:56:55;;;;;;;11.43;6.75;;;13.80;99.90;;;;;;5051531;28;20049;-68
2022/08/07 00:59:21;;;;;;;12.10;6.97;;;13.80;99.90;;;;;;5032736;28;20087;-67
2022/08/07 01:01:48;;;;;;;9.88;6.60;;;13.80;99.90;;;;;;5044440;28;20048;-68
2022/08/07 01:04:15;;;;;;;10.40;7.20;;;13.70;99.90;;;;;;5070721;28;20044;-67
2022/08/07 01:06:40;;;;;;;9.73;6.85;;;13.70;99.90;;;;;;5062179;28;20182;-69
2022/08/07 01:09:08;;;;;;;10.82;6.20;;;13.70;99.90;;;;;;5070152;28;20036;-68
2022/08/07 01:11:34;;;;;;;12.63;7.38;;;13.70;99.90;;;;;;5051485;28;20453;-67
2022/08/07 01:14:00;;;;;;;10.27;6.38;;;13.60;99.90;;;;;;5069107;28;20045;-67
2022/08/07 01:16:27;;;;;;;13.60;7.20;;;13.60;99.90;;;;;;5070399;28;20040;-68
2022/08/07 01:18:53;;;;;;;10.75;6.95;;;13.60;99.90;;;;;;5069815;28;20036;-67
2022/08/07 01:21:22;;;;;;;12.80;6.60;;;13.60;99.90;;;;;;5056327;28;20044;-67
2022/08/07 01:23:50;;;;;;;11.85;6.68;;;13.60;99.90;;;;;;5062033;28;20041;-68
2022/08/07 01:26:19;;;;;;;9.65;6.80;;;13.60;99.90;;;;;;5054797;28;20037;-67
2022/08/07 01:28:47;;;;;;;10.48;7.20;;;13.50;99.90;;;;;;5051622;28;20092;-68
2022/08/07 01:31:14;;;;;;;;;;;13.50;99.90;;;;;;5036165;28;20055;-67
2022/08/07 01:33:41;;;;;;;8.90;6.32;;;13.50;99.90;;;;;;5068399;28;19920;-68
2022/08/07 01:36:10;;;;;;;10.02;6.45;;;13.40;99.90;;;;;;5068418;28;20415;-68
2022/08/07 01:38:38;;;;;;;8.45;6.43;;;13.40;99.90;;;;;;5054461;28;20483;-68
2022/08/07 01:41:06;;;;;;;17.10;7.60;;;13.40;99.90;;;;;;5049324;28;20036;-68
2022/08/07 01:43:35;;;;;;;8.38;6.50;;;13.40;99.90;;;;;;5044218;28;20315;-66
2022/08/07 01:46:01;;;;;;;11.57;6.38;;;13.40;99.90;;;;;;5063330;28;20086;-68
2022/08/07 01:48:27;;;;;;;8.88;6.32;;;13.40;99.90;;;;;;5049172;28;20107;-68
2022/08/07 01:50:58;;;;;;;11.75;6.30;;;14.10;99.90;;;;;;5063554;28;20041;-67
2022/08/07 01:53:27;;;;;;;8.20;5.68;;;13.40;99.90;;;;;;5053765;28;20055;-67
2022/08/07 01:56:01;;;;;;;7.90;5.32;;;13.40;99.90;;;;;;5073750;28;20044;-68
2022/08/07 01:58:32;;;;;;;8.80;5.43;;;13.40;99.90;;;;;;5066150;28;20589;-67
2022/08/07 02:01:03;;;;;;;9.40;5.75;;;13.30;99.90;;;;;;5072243;28;20470;-68
2022/08/07 02:03:33;;;;;;;9.32;6.00;;;13.30;99.90;;;;;;5065510;28;20032;-67
2022/08/07 02:06:09;;;;;;;9.35;5.55;;;13.30;99.90;;;;;;5072157;28;20063;-67
2022/08/07 02:08:39;;;;;;;8.85;5.63;;;13.30;99.90;;;;;;5063688;28;20044;-67
2022/08/07 02:11:10;;;;;;;11.45;6.03;;;13.30;99.90;;;;;;5051455;28;20071;-68
2022/08/07 02:13:37;;;;;;;8.52;5.93;;;13.30;99.90;;;;;;5069946;28;20119;-67
2022/08/07 02:16:04;;;;;;;10.53;6.77;;;13.30;99.90;;;;;;5055250;28;20057;-69
2022/08/07 02:18:33;;;;;;;9.65;6.95;;;13.30;99.90;;;;;;5053696;28;20728;-69
2022/08/07 02:21:07;;;;;;;9.02;6.40;;;13.30;99.90;;;;;;5073129;28;20043;-68
2022/08/07 02:23:36;;;;;;;10.15;6.50;;;13.20;99.90;;;;;;5049365;28;20055;-67
2022/08/07 02:26:06;;;;;;;9.75;6.60;;;13.20;99.90;;;;;;5069346;28;20087;-66
2022/08/07 02:28:34;;;;;;;9.30;6.50;;;13.20;99.90;;;;;;5069211;28;20032;-68
2022/08/07 02:31:05;;;;;;;11.48;7.15;;;13.20;99.90;;;;;;5063825;28;20099;-68
2022/08/07 02:33:34;;;;;;;13.13;7.28;;;13.10;99.90;;;;;;5071245;28;20068;-68
2022/08/07 02:36:01;;;;;;;9.90;7.20;;;13.20;99.90;;;;;;5068695;28;20100;-68
2022/08/07 02:38:31;;;;;;;8.73;6.70;;;13.10;99.90;;;;;;5072636;28;20032;-68
2022/08/07 02:40:57;;;;;;;16.38;7.60;;;13.10;99.90;;;;;;5071895;28;20101;-68
2022/08/07 02:43:25;;;;;;;10.35;6.30;;;13.10;99.90;;;;;;5052909;28;20102;-68
2022/08/07 02:45:53;;;;;;;9.65;5.82;;;13.10;99.90;;;;;;5072778;28;20037;-69
2022/08/07 02:48:19;;;;;;;8.18;6.22;;;13.00;99.90;;;;;;5045603;28;20131;-68
2022/08/07 02:50:49;;;;;;;8.85;5.45;;;13.00;99.90;;;;;;5071267;28;20076;-70
2022/08/07 02:53:23;;;;;;;8.32;6.10;;;13.10;99.90;;;;;;5050469;28;20040;-68
2022/08/07 02:55:50;;;;;;;9.57;5.95;;;13.00;99.90;;;;;;5053353;28;20052;-67
2022/08/07 02:58:22;;;;;;;8.13;5.35;;;13.00;99.90;;;;;;5072547;28;20470;-70
2022/08/07 03:00:56;;;;;;;8.52;5.60;;;13.00;99.90;;;;;;5066137;28;20048;-69
2022/08/07 03:03:25;;;;;;;6.75;5.40;;;13.00;99.90;;;;;;5032892;28;20084;-69
2022/08/07 03:05:53;;;;;;;9.60;5.88;;;13.00;99.90;;;;;;5069529;28;20463;-69
2022/08/07 03:08:23;;;;;;;7.53;5.38;;;12.90;99.90;;;;;;5053345;28;20384;-68
2022/08/07 03:10:49;;;;;;;9.07;5.75;;;12.90;99.90;;;;;;5049823;28;20101;-68
2022/08/07 03:13:16;;;;;;;8.68;5.47;;;13.00;99.90;;;;;;5045726;28;20702;-68
2022/08/07 03:15:42;;;;;;;9.60;5.75;;;12.90;99.90;;;;;;5050532;28;20044;-68
2022/08/07 03:18:09;;;;;;;10.13;5.55;;;12.90;99.90;;;;;;5068499;28;20037;-67
2022/08/07 03:20:35;;;;;;;8.57;5.72;;;12.90;99.90;;;;;;5056911;28;20055;-67
2022/08/07 03:23:02;;;;;;;6.70;5.18;;;12.80;99.90;;;;;;5072235;28;20036;-68
2022/08/07 03:25:31;;;;;;;9.45;5.32;;;12.90;99.90;;;;;;5068414;28;20036;-67
2022/08/07 03:27:59;;;;;;;7.20;5.30;;;12.80;99.90;;;;;;5054018;28;20046;-68
2022/08/07 03:30:25;;;;;;;10.93;5.28;;;12.90;99.90;;;;;;5054514;28;20044;-68
2022/08/07 03:32:52;;;;;;;6.43;4.57;;;12.90;99.90;;;;;;5050580;28;20045;-68
2022/08/07 03:35:24;;;;;;;10.93;6.03;;;12.90;99.90;;;;;;5063994;28;20049;-68
2022/08/07 03:38:00;;;;;;;9.60;5.50;;;12.90;99.90;;;;;;5068679;28;20080;-69
2022/08/07 03:40:26;;;;;;;8.43;5.80;;;12.90;99.90;;;;;;5067225;28;20033;-67
2022/08/07 03:42:53;;;;;;;10.52;5.82;;;12.90;99.90;;;;;;5065271;28;20049;-68
2022/08/07 03:45:21;;;;;;;10.02;5.63;;;12.90;99.90;;;;;;5071177;28;20040;-68
2022/08/07 03:47:47;;;;;;;7.72;5.45;;;12.90;99.90;;;;;;5048294;28;20086;-69
2022/08/07 03:50:14;;;;;;;8.32;4.75;;;12.90;99.90;;;;;;5063149;28;20053;-68
2022/08/07 03:52:41;;;;;;;8.50;5.50;;;12.90;99.90;;;;;;5063304;28;20049;-68
2022/08/07 03:55:07;;;;;;;7.90;5.30;;;12.90;99.90;;;;;;5041996;28;20040;-68
2022/08/07 03:57:35;;;;;;;7.88;5.18;;;12.90;99.90;;;;;;5052112;28;20463;-68
2022/08/07 04:00:02;;;;;;;8.50;4.80;;;12.80;99.90;;;;;;5062494;28;20124;-68
2022/08/07 04:02:28;;;;;;;7.30;4.75;;;12.80;99.90;;;;;;5070236;28;20047;-68
2022/08/07 04:04:54;;;;;;;7.72;5.18;;;12.90;99.90;;;;;;5064270;28;20391;-68
2022/08/07 04:07:20;;;;;;;8.02;5.15;;;12.80;99.90;;;;;;5052934;28;20066;-68
2022/08/07 04:09:47;;;;;;;8.13;5.53;;;12.90;99.90;;;;;;5068527;28;20036;-68
2022/08/07 04:12:14;;;;;;;9.30;4.93;;;12.80;99.90;;;;;;5052935;28;20398;-67
2022/08/07 04:14:41;;;;;;;10.35;5.60;;;12.80;99.90;;;;;;5069084;28;20174;-68
2022/08/07 04:17:07;;;;;;;8.88;4.90;;;12.80;99.90;;;;;;5058456;28;20040;-68
2022/08/07 04:19:33;;;;;;;7.60;4.50;;;12.80;99.90;;;;;;5070794;28;20040;-68
2022/08/07 04:22:02;;;;;;;11.23;5.97;;;12.90;99.90;;;;;;5061248;28;20071;-67
2022/08/07 04:24:28;;;;;;;11.82;5.22;;;12.80;99.90;;;;;;5064033;28;20032;-68
2022/08/07 04:26:56;;;;;;;7.63;4.78;;;12.80;99.90;;;;;;5070945;28;20055;-67
2022/08/07 04:29:23;;;;;;;8.40;5.45;;;12.90;99.90;;;;;;5065970;28;20036;-67
2022/08/07 04:31:49;;;;;;;9.68;5.63;;;12.90;99.90;;;;;;5071100;28;20057;-68
2022/08/07 04:34:15;;;;;;;10.55;5.85;;;12.80;99.90;;;;;;5064854;28;20063;-68
2022/08/07 04:36:42;;;;;;;7.50;5.38;;;12.80;99.90;;;;;;5067222;28;20402;-69
2022/08/07 04:39:08;;;;;;;11.32;5.55;;;12.90;99.90;;;;;;5047786;28;20123;-68
2022/08/07 04:41:34;;;;;;;8.68;5.57;;;12.90;99.90;;;;;;5062422;28;20036;-69
2022/08/07 04:44:00;;;;;;;12.25;6.45;;;12.90;99.90;;;;;;5048199;28;20043;-68
2022/08/07 04:46:35;;;;;;;7.07;5.20;;;12.90;99.90;;;;;;5053564;28;20119;-67
2022/08/07 04:49:15;;;;;;;10.10;5.15;;;12.90;99.90;;;;;;5070143;28;20088;-67
2022/08/07 04:52:11;;;;;;;10.02;5.40;;;13.00;99.90;;;;;;5052163;28;20075;-68
2022/08/07 04:54:52;;;;;;;7.40;5.00;;;13.00;99.90;;;;;;5060032;28;20529;-68
2022/08/07 04:57:23;;;;;;;8.27;5.20;;;13.10;99.90;;;;;;5063533;28;20124;-69
2022/08/07 04:59:59;;;;;;;8.50;4.93;;;13.00;99.90;;;;;;5032937;28;20641;-67
2022/08/07 05:02:28;;;;;;;7.70;4.93;;;13.10;99.90;;;;;;5063463;28;20052;-67
2022/08/07 05:05:36;;;;;;;8.77;5.47;;;13.20;99.90;;;;;;5069487;28;20040;-67
2022/08/07 05:08:09;;;;;;;6.68;4.68;;;13.20;99.90;;;;;;4991186;28;20077;-69
2022/08/07 05:10:42;;;;;;;9.55;4.55;;;13.20;99.90;;;;;;4992729;28;20424;-67
2022/08/07 05:13:22;;;;;;;6.38;4.80;;;13.30;99.90;;;;;;5030227;28;20049;-67
2022/08/07 05:15:51;;;;;;;8.43;4.45;;;13.30;99.90;;;;;;5073683;28;20045;-68
2022/08/07 05:18:31;;;;;;;7.90;4.68;;;13.40;99.90;;;;;;5073967;28;20045;-68
2022/08/07 05:21:01;;;;;;;6.00;4.68;;;13.40;99.90;;;;;;5046399;28;20033;-69
2022/08/07 05:23:39;;;;;;;6.95;4.55;;;13.50;99.90;;;;;;5068216;28;20123;-66
2022/08/07 05:26:11;;;;;;;6.68;4.97;;;13.50;99.90;;;;;;5068269;28;20558;-67
2022/08/07 05:28:38;;;;;;;6.22;4.38;;;13.60;99.90;;;;;;5065612;28;20090;-69
2022/08/07 05:31:06;;;;;;;8.23;4.50;;;13.60;99.90;;;;;;5067053;28;20044;-67
2022/08/07 05:33:36;;;;;;;9.18;4.78;;;13.70;99.90;;;;;;5069629;28;20099;-68
2022/08/07 05:36:05;;;;;;;6.85;4.75;;;13.80;99.90;;;;;;5030679;28;20063;-67
2022/08/07 05:38:32;;;;;;;7.47;4.60;;;13.80;99.90;;;;;;5055732;28;20111;-68
2022/08/07 05:41:00;;;;;;;7.93;4.32;;;13.90;99.90;;;;;;5072701;28;20048;-67
2022/08/07 05:43:25;;;;;;;6.68;4.38;;;14.00;99.90;;;;;;5055114;28;20048;-68
2022/08/07 05:45:52;;;;;;;6.35;3.90;;;14.00;99.90;;;;;;5069218;28;20136;-68
2022/08/07 05:48:19;;;;;;;5.57;4.10;;;14.10;99.90;;;;;;5054588;28;20123;-68
2022/08/07 05:50:46;;;;;;;5.22;4.20;;;14.20;99.90;;;;;;5069506;28;20407;-68
2022/08/07 05:53:11;;;;;;;7.57;4.70;;;14.30;99.90;;;;;;5054865;28;20044;-67
2022/08/07 05:55:38;;;;;;;8.00;3.85;;;14.40;99.90;;;;;;5073397;28;20040;-70
2022/08/07 05:58:08;;;;;;;5.75;3.90;;;14.50;99.90;;;;;;5073127;28;20044;-68
2022/08/07 06:00:35;;;;;;;6.57;4.40;;;14.60;99.90;;;;;;5072733;28;20048;-66
2022/08/07 06:03:04;;;;;;;6.82;4.38;;;14.70;99.90;;;;;;5047634;28;20049;-68
2022/08/07 06:05:33;;;;;;;6.38;4.38;;;14.80;99.90;;;;;;5029818;28;20083;-68
2022/08/07 06:08:00;;;;;;;6.35;3.95;;;14.90;99.90;;;;;;5065162;28;20058;-68
2022/08/07 06:10:27;;;;;;;8.50;4.13;;;15.00;99.90;;;;;;5070177;28;20403;-68
2022/08/07 06:12:53;;;;;;;8.00;4.50;;;15.10;99.90;;;;;;5055190;28;20126;-67
2022/08/07 06:15:20;;;;;;;6.15;3.30;;;15.20;99.90;;;;;;5071843;28;20048;-68
2022/08/07 06:17:50;;;;;;;7.30;4.20;;;15.30;99.90;;;;;;5046620;28;20072;-67
2022/08/07 06:20:16;;;;;;;7.88;4.00;;;15.40;99.90;;;;;;5053702;28;20116;-69
2022/08/07 06:22:47;;;;;;;6.93;4.47;;;15.50;99.90;;;;;;5067714;28;20041;-66
2022/08/07 06:25:12;;;;;;;10.00;3.60;;;15.60;99.90;;;;;;5072758;28;20055;-68
2022/08/07 06:27:38;;;;;;;4.75;3.70;;;15.80;99.90;;;;;;5073433;28;20032;-68
2022/08/07 06:30:07;;;;;;;8.43;5.45;;;15.90;99.90;;;;;;5043831;28;20055;-68
2022/08/07 06:32:33;;;;;;;5.30;3.60;;;16.10;99.90;;;;;;5047110;28;20055;-68
2022/08/07 06:34:59;;;;;;;6.47;3.80;;;16.30;99.90;;;;;;5057465;28;20053;-68
2022/08/07 06:37:25;;;;;;;6.03;3.63;;;16.50;99.90;;;;;;5032864;28;20049;-68
2022/08/07 06:39:52;;;;;;;7.03;4.03;;;16.80;99.90;;;;;;5052768;28;20426;-68
2022/08/07 06:42:28;;;;;;;6.28;3.40;;;17.20;99.90;;;;;;5052718;28;20128;-67
2022/08/07 06:44:58;;;;;;;6.97;3.50;;;17.90;99.90;;;;;;5046224;28;20037;-67
2022/08/07 06:47:23;;;;;;;5.00;3.38;;;18.50;99.90;;;;;;5052696;28;20045;-67
2022/08/07 06:49:49;;;;;;;5.07;3.40;;;18.60;99.90;;;;;;5048632;28;20041;-67
2022/08/07 06:52:17;;;;;;;5.15;3.35;;;18.70;99.90;;;;;;5052355;28;20041;-67
2022/08/07 06:54:45;;;;;;;5.40;2.90;;;18.80;99.90;;;;;;5051962;28;20115;-67
2022/08/07 06:57:12;;;;;;;4.10;2.70;;;18.90;99.90;;;;;;5027351;28;20041;-68
2022/08/07 06:59:40;;;;;;;3.90;2.80;;;18.90;99.90;;;;;;5052142;28;20111;-68
2022/08/07 07:02:12;;;;;;;4.78;3.25;;;18.80;99.90;;;;;;5051311;28;20119;-68
2022/08/07 07:04:38;;;;;;;6.25;2.60;;;18.80;99.90;;;;;;5034191;28;20098;-68
2022/08/07 07:07:06;;;;;;;4.30;2.60;;;18.80;99.90;;;;;;5028350;28;20434;-68
2022/08/07 07:09:32;;;;;;;4.70;2.75;;;18.80;99.90;;;;;;5026617;28;20053;-68
2022/08/07 07:12:22;;;;;;;3.78;2.72;;;18.90;99.90;;;;;;5060151;28;20103;-67
2022/08/07 07:14:56;;;;;;;4.53;2.30;;;18.90;99.90;;;;;;5040814;28;20049;-68
2022/08/07 07:17:43;;;;;;;4.07;2.40;;;19.00;99.90;;;;;;5051914;28;20041;-68
2022/08/07 07:20:26;;;;;;;3.75;2.40;;;19.00;99.90;;;;;;5033579;28;20049;-69
2022/08/07 07:22:53;;;;;;;3.30;2.25;;;19.00;99.90;;;;;;5044907;28;20095;-67
2022/08/07 07:25:20;;;;;;;3.78;2.47;;;19.10;99.90;;;;;;5051928;28;20044;-70
2022/08/07 07:28:15;;;;;;;5.22;2.38;;;19.20;99.90;;;;;;5028143;28;20120;-68
2022/08/07 07:30:46;;;;;;;5.40;2.53;;;19.20;99.50;;;;;;5051091;28;20045;-68
2022/08/07 07:33:16;;;;;;;6.75;2.35;;;19.30;99.90;;;;;;5045263;28;20045;-67
2022/08/07 07:35:47;;;;;;;3.63;2.65;;;19.40;99.90;;;;;;5051589;28;20107;-68
2022/08/07 07:38:17;;;;;;;4.30;2.83;;;19.50;99.90;;;;;;5044201;28;20045;-67
2022/08/07 07:40:47;;;;;;;4.00;2.70;;;19.60;99.10;;;;;;5053850;28;20527;-67
2022/08/07 07:43:16;;;;;;;5.95;2.60;;;19.60;98.90;;;;;;5045818;28;20495;-67
2022/08/07 07:45:44;;;;;;;4.65;2.90;;;19.60;98.90;;;;;;5051232;28;20048;-68
2022/08/07 07:48:14;;;;;;;6.05;2.90;;;19.80;98.90;;;;;;5046216;28;20049;-67
2022/08/07 07:50:40;;;;;;;5.97;3.47;;;19.80;98.80;;;;;;5046476;28;20088;-67
2022/08/07 07:53:11;;;;;;;4.65;3.38;;;19.90;98.70;;;;;;5015701;28;20049;-66
2022/08/07 07:55:37;;;;;;;5.40;3.65;;;20.00;98.30;;;;;;5051638;28;20044;-66
2022/08/07 07:58:04;;;;;;;6.05;3.80;;;20.10;98.30;;;;;;5048403;28;20576;-68
2022/08/07 08:00:32;;;;;;;5.38;3.60;;;20.10;97.70;;;;;;5049038;28;20044;-67
2022/08/07 08:03:13;;;;;;;5.25;3.63;;;20.20;97.70;;;;;;5049558;28;20087;-67
2022/08/07 08:05:41;;;;;;;5.82;3.42;;;20.20;97.50;;;;;;5050865;28;20367;-68
2022/08/07 08:08:08;;;;;;;6.22;3.95;;;20.40;97.80;;;;;;5044592;28;20040;-68
2022/08/07 08:10:37;;;;;;;;;;;20.40;97.90;;;;;;5033357;28;20048;-66
2022/08/07 08:13:04;;;;;;;7.00;3.85;;;20.50;97.10;;;;;;5049047;28;20014;-67
2022/08/07 08:15:37;;;;;;;6.43;4.18;;;20.60;96.60;;;;;;5045129;28;20051;-66
2022/08/07 08:18:10;;;;;;;5.10;3.53;;;20.60;96.70;;;;;;5048180;28;20041;-66
2022/08/07 08:20:39;;;;;;;6.85;3.60;;;20.60;96.40;;;;;;5051070;28;20565;-68
2022/08/07 08:27:03;;;;;;;5.43;3.67;;;20.80;96.40;;;;;;5050443;28;20084;-66
2022/08/07 08:28:59;;;;;;;5.72;3.75;;;20.90;96.50;;;;;;5049303;28;20550;-67
2022/08/07 08:31:29;;;;;;;6.50;3.83;;;21.10;96.20;;;;;;5047517;28;20132;-67
2022/08/07 08:33:56;;;;;;;6.95;3.65;;;21.10;95.80;;;;;;5021011;28;20059;-68
2022/08/07 08:36:25;;;;;;;6.45;3.72;;;21.10;95.30;;;;;;5046673;28;20083;-67
2022/08/07 08:38:54;;;;;;;4.32;3.40;;;21.00;95.20;;;;;;5050752;28;20086;-67
2022/08/07 08:41:37;;;;;;;5.38;3.50;;;21.00;95.10;;;;;;5060044;28;20049;-66
2022/08/07 08:44:11;;;;;;;5.65;3.53;;;21.00;94.50;;;;;;5036808;28;20036;-67
2022/08/07 08:46:43;;;;;;;6.85;3.50;;;21.00;93.60;;;;;;5054196;28;20388;-68
2022/08/07 08:49:15;;;;;;;7.50;3.50;;;20.70;93.20;;;;;;5053896;28;20048;-67
2022/08/07 08:52:04;;;;;;;6.40;3.60;;;20.40;94.30;;;;;;5056104;28;20071;-66
2022/08/07 08:54:38;;;;;;;5.15;3.45;;;20.40;95.20;;;;;;5039669;28;20102;-68
2022/08/07 08:57:11;;;;;;;5.22;3.60;;;20.40;94.80;;;;;;5030484;28;20048;-67
2022/08/07 08:59:36;;;;;;;4.70;3.22;;;20.40;95.10;;;;;;5067435;28;20044;-66
2022/08/07 09:02:30;;;;;;;5.30;3.53;;;20.50;94.30;;;;;;5060530;28;20045;-71
2022/08/07 09:05:10;;;;;;;5.28;3.22;;;20.70;94.90;;;;;;5058873;28;20048;-68
2022/08/07 09:07:57;;;;;;;9.52;3.50;;;20.80;94.40;;;;;;5048956;28;20041;-68
2022/08/07 09:11:08;;;;;;;6.20;3.40;;;21.00;94.40;;;;;;5051309;28;20040;-68
2022/08/07 09:14:06;;;;;;;3.65;3.10;;;21.20;93.20;;;;;;4971290;28;20526;-66
2022/08/07 09:17:03;;;;;;;4.93;3.75;;;21.20;93.70;;;;;;4984743;28;20050;-67
2022/08/07 09:19:58;;;;;;;6.03;3.35;;;21.20;93.90;;;;;;4986142;28;20129;-66
2022/08/07 09:22:33;;;;;;;4.65;3.05;;;21.50;93.00;;;;;;4973836;28;20050;-66
2022/08/07 09:25:15;;;;;;;4.75;2.97;;;21.60;91.30;;;;;;5026355;28;20101;-66
2022/08/07 09:28:03;;;;;;;5.78;2.90;;;21.70;91.40;;;;;;5049641;28;20444;-65
2022/08/07 09:30:48;;;;;;;5.13;2.90;;;21.90;91.80;;;;;;5036666;28;20056;-67
2022/08/07 09:33:43;;;;;;;5.35;2.40;;;22.20;91.60;;;;;;5042872;28;20510;-67
2022/08/07 09:36:28;;;;;;;5.22;2.83;;;22.40;90.80;;;;;;5069395;28;20095;-68
2022/08/07 09:39:13;;;;;;;3.67;2.60;;;22.70;90.40;;;;;;5069928;28;20122;-66
2022/08/07 09:42:16;;;;;;;3.38;2.42;;;22.80;88.70;;;;;;5057959;28;20078;-68
2022/08/07 09:44:57;;;;;;;5.47;2.60;;;23.00;86.30;;;;;;5063159;28;20419;-67
2022/08/07 09:47:42;;;;;;;5.03;2.63;;;23.10;86.10;;;;;;5050183;28;20082;-66
2022/08/07 09:50:31;;;;;;;4.30;2.83;;;23.20;85.00;;;;;;5040584;28;20499;-66
2022/08/07 09:53:08;;;;;;;6.43;2.63;;;23.40;85.60;;;;;;5052402;28;20094;-67
2022/08/07 09:56:12;;;;;;;3.53;2.40;;;23.40;82.80;;;;;;5067931;28;20425;-65
2022/08/07 09:58:57;;;;;;;3.75;2.50;;;23.40;83.30;;;;;;5050814;28;20376;-66
2022/08/07 10:02:04;;;;;;;4.68;2.30;;;23.50;84.10;;;;;;5069046;28;20449;-66
2022/08/07 10:04:38;;;;;;;3.30;2.30;;;23.60;80.60;;;;;;5014991;28;20150;-66
2022/08/07 10:07:33;;;;;;;7.25;2.85;;;23.80;81.30;;;;;;5072531;28;20555;-67
2022/08/07 10:10:14;;;;;;;5.15;2.50;;;23.80;79.00;;;;;;5064762;28;20041;-67
2022/08/07 10:13:14;;;;;;;3.10;2.30;;;24.00;79.40;;;;;;5072919;28;20127;-67
2022/08/07 10:15:56;;;;;;;4.97;3.00;;;24.10;77.30;;;;;;5067595;28;20040;-65
2022/08/07 10:18:56;;;;;;;5.15;2.55;;;24.20;79.40;;;;;;5057370;28;20493;-67
2022/08/07 10:21:59;;;;;;;4.55;2.53;;;24.30;78.00;;;;;;5054202;28;20037;-67
2022/08/07 10:24:48;;;;;;;4.68;2.67;;;24.00;78.20;;;;;;5027094;28;20044;-66
2022/08/07 10:27:17;;;;;;;3.35;2.33;;;23.70;80.80;;;;;;5069846;28;20090;-66
2022/08/07 10:29:54;;;;;;;6.95;2.35;;;23.80;79.50;;;;;;5066478;28;20484;-65
2022/08/07 10:32:57;;;;;;;2.70;1.85;;;24.20;76.60;;;;;;5063860;28;20499;-67
2022/08/07 10:35:35;;;;;;;5.32;2.30;;;24.30;70.50;;;;;;5027139;28;20518;-66
2022/08/07 10:38:25;;;;;;;3.40;2.45;;;24.40;71.00;;;;;;5047532;28;20164;-67
2022/08/07 10:41:32;;;;;;;4.78;2.40;;;24.40;73.40;;;;;;5052065;28;20045;-66
2022/08/07 10:44:09;;;;;;;4.65;2.55;;;24.20;76.30;;;;;;5034141;28;20056;-65
2022/08/07 10:46:58;;;;;;;3.05;2.38;;;23.90;76.00;;;;;;5017672;28;20436;-65
2022/08/07 10:49:42;;;;;;;4.85;2.63;;;23.40;76.70;;;;;;5045115;28;20044;-66
2022/08/07 10:52:13;;;;;;;3.90;2.45;;;23.30;78.90;;;;;;5034181;28;20576;-67
2022/08/07 10:54:58;;;;;;;3.38;2.05;;;23.70;78.50;;;;;;5052594;28;20041;-65
2022/08/07 10:57:42;;;;;;;3.20;1.92;;;24.20;76.30;;;;;;5035877;28;20049;-66
2022/08/07 11:00:15;;;;;;;4.07;2.30;;;24.90;74.80;;;;;;5052379;28;20402;-66
2022/08/07 11:03:09;;;;;;;3.38;2.05;;;25.20;73.00;;;;;;5033245;28;20074;-67
2022/08/07 11:06:02;;;;;;;5.90;2.15;;;25.50;73.40;;;;;;5043205;28;20084;-64
2022/08/07 11:08:57;;;;;;;2.60;2.03;;;25.80;72.70;;;;;;5047352;28;20049;-65
2022/08/07 11:12:07;;;;;;;3.95;2.40;;;26.10;73.60;;;;;;5051859;28;20435;-66
2022/08/07 11:14:47;;;;;;;5.47;2.20;;;26.60;72.50;;;;;;5026352;28;20053;-66
2022/08/07 11:17:33;;;;;;;3.40;2.10;;;26.60;69.30;;;;;;5026436;28;20049;-66
2022/08/07 11:20:20;;;;;;;3.78;2.35;;;26.10;68.30;;;;;;5051067;28;20130;-66
2022/08/07 11:22:59;;;;;;;4.30;2.47;;;25.50;69.00;;;;;;5045676;28;20048;-65
2022/08/07 11:25:29;;;;;;;3.40;2.03;;;25.00;70.10;;;;;;5027901;28;20033;-65
2022/08/07 11:28:29;;;;;;;5.10;2.20;;;24.70;70.00;;;;;;5033601;28;20390;-67
2022/08/07 11:31:00;;;;;;;;;;;24.20;70.70;;;;;;5041980;28;20121;-67
2022/08/07 11:33:50;;;;;;;4.05;2.10;;;23.90;72.90;;;;;;5024721;28;20378;-65
2022/08/07 11:36:46;;;;;;;3.65;2.35;;;24.10;75.60;;;;;;5051829;28;20044;-66
2022/08/07 11:39:42;;;;;;;4.75;2.30;;;24.30;73.00;;;;;;5068475;28;20044;-67
2022/08/07 11:42:24;;;;;;;3.13;2.10;;;24.10;72.10;;;;;;5063407;28;20051;-67
2022/08/07 11:44:54;;;;;;;4.82;2.40;;;24.00;75.10;;;;;;5026114;28;20453;-67
2022/08/07 11:47:32;;;;;;;6.45;2.05;;;24.30;74.00;;;;;;5048647;28;20369;-66
2022/08/07 11:50:23;;;;;;;3.40;2.00;;;24.60;73.60;;;;;;5024413;28;20052;-66
2022/08/07 11:53:02;;;;;;;2.70;1.85;;;25.00;73.20;;;;;;5052903;28;20123;-67
2022/08/07 11:55:58;;;;;;;4.63;2.40;;;25.10;73.40;;;;;;5037503;28;20049;-67
2022/08/07 11:58:53;;;;;;;6.15;2.50;;;25.00;71.00;;;;;;5027714;28;20430;-66
2022/08/07 12:01:43;;;;;;;3.75;2.22;;;24.50;71.80;;;;;;4991852;28;20080;-66
2022/08/07 12:04:51;;;;;;;7.90;1.92;;;24.30;73.80;;;;;;5056440;28;20044;-67
2022/08/07 12:07:33;;;;;;;6.20;2.20;;;24.60;73.10;;;;;;5036587;28;20052;-68
2022/08/07 12:10:06;;;;;;;2.88;2.03;;;24.90;72.80;;;;;;5032252;28;20060;-69
2022/08/07 12:12:40;;;;;;;4.72;2.58;;;25.30;72.20;;;;;;5056859;28;20041;-68
2022/08/07 12:15:16;;;;;;;2.90;2.00;;;25.40;71.20;;;;;;5037673;28;20043;-67
2022/08/07 12:17:52;;;;;;;2.20;1.70;;;25.60;71.50;;;;;;5054434;28;20517;-66
2022/08/07 12:20:33;;;;;;;4.43;1.88;;;25.60;71.40;;;;;;5057408;28;20079;-65
2022/08/07 12:23:23;;;;;;;4.60;2.10;;;25.80;68.80;;;;;;5048942;28;20072;-67
2022/08/07 12:26:00;;;;;;;4.13;2.15;;;25.70;69.50;;;;;;5069554;28;20525;-69
2022/08/07 12:28:36;;;;;;;4.30;2.03;;;25.40;69.80;;;;;;5059420;28;20504;-66
2022/08/07 12:31:11;;;;;;;3.97;1.80;;;25.10;71.10;;;;;;5055594;28;20098;-66
2022/08/07 12:33:41;;;;;;;3.17;1.95;;;24.90;71.50;;;;;;5035660;28;20600;-68
2022/08/07 12:36:09;;;;;;;3.00;1.95;;;24.80;72.00;;;;;;5063562;28;20036;-67
2022/08/07 12:38:37;;;;;;;2.60;2.08;;;24.60;71.60;;;;;;5047990;28;20040;-65
2022/08/07 12:41:07;;;;;;;4.47;2.17;;;24.40;72.20;;;;;;5041693;28;20044;-65
2022/08/07 12:43:35;;;;;;;3.45;2.33;;;24.40;73.10;;;;;;5047593;28;20036;-65
2022/08/07 12:46:27;;;;;;;4.25;2.30;;;24.20;74.80;;;;;;5061528;28;20037;-66
2022/08/07 12:49:02;;;;;;;5.18;2.28;;;24.00;74.70;;;;;;5066558;28;20036;-65
2022/08/07 12:51:37;;;;;;;4.78;2.38;;;23.60;76.10;;;;;;5062483;28;20040;-66
2022/08/07 12:54:25;;;;;;;4.28;2.28;;;23.30;77.20;;;;;;5041015;28;20040;-66
2022/08/07 12:56:55;;;;;;;6.57;2.63;;;23.20;78.10;;;;;;5064162;28;20441;-69
2022/08/07 12:59:30;;;;;;;4.68;2.22;;;23.10;78.70;;;;;;5069683;28;20052;-66
2022/08/07 13:02:30;;;;;;;5.05;2.80;;;23.00;79.20;;;;;;5069113;28;20457;-66
2022/08/07 13:05:09;;;;;;;4.95;2.67;;;22.90;79.40;;;;;;5041670;28;20434;-66
2022/08/07 13:08:11;;;;;;;5.65;3.08;;;22.80;80.20;;;;;;5066531;28;20105;-66
2022/08/07 13:11:04;;;;;;;5.97;2.72;;;22.60;80.90;;;;;;5014412;28;20417;-67
2022/08/07 13:13:46;;;;;;;4.47;2.70;;;22.50;82.00;;;;;;5069781;28;20036;-65
2022/08/07 13:16:26;;;;;;;8.55;2.80;;;22.50;81.60;;;;;;5040684;28;20041;-66
2022/08/07 13:19:16;;;;;;;5.18;2.60;;;22.30;81.70;;;;;;5032161;28;20052;-67
2022/08/07 13:21:51;;;;;;;3.60;2.35;;;22.40;81.70;;;;;;5030302;28;20049;-66
2022/08/07 13:24:17;;;;;;;5.28;2.40;;;22.40;81.30;;;;;;5061943;28;20434;-67